Dierks, Arkansas
Current Conditions -  °F | °C
As of 5:33 AM on Saturday 20 Dec 2014 (Local Time) from KDEQ Reporting Station
Haze Haze  
Wind Chill: 44°   Ceiling: 1700
Heat Index: 44°   Visibility: 4mi
Dew Point: 42°   Wind: 0mph
Humidity: 93%   Direction: NA
Pressure: 30.22"   Gusts: NA
Location:  34.12°N, 94.02°W
Report Text: KDEQ 201133Z AUTO 00000KT 4SM BR FEW007 OVC017 07/06 A3022 RMK AO2 T00670056
Loading
Personal Weather Stations






























Interactive Weather Map New forecast layout! Learn more

10-Day Weather Forecast

Advertisements
Track Severe Weather on mobile